createdAt,value
2018-08-11T00:01:29.088Z,13.04
2018-08-11T00:04:01.151Z,13.04
2018-08-11T00:06:33.134Z,13.05
2018-08-11T00:09:07.385Z,13.06
2018-08-11T00:11:39.912Z,13.01
2018-08-11T00:14:11.938Z,12.95
2018-08-11T00:16:43.914Z,12.82
2018-08-11T00:19:15.955Z,12.91
2018-08-11T00:21:47.942Z,12.97
2018-08-11T00:24:19.963Z,12.97
2018-08-11T00:26:51.968Z,12.96
2018-08-11T00:29:24.011Z,12.95
2018-08-11T00:31:56.019Z,12.87
2018-08-11T00:34:28.014Z,12.85
2018-08-11T00:37:00.039Z,12.80
2018-08-11T00:39:34.090Z,12.70
2018-08-11T00:42:06.134Z,12.72
2018-08-11T00:44:38.163Z,12.81
2018-08-11T00:47:10.210Z,12.82
2018-08-11T00:49:42.283Z,12.73
2018-08-11T00:52:14.334Z,12.81
2018-08-11T00:54:46.370Z,12.91
2018-08-11T00:57:18.433Z,12.95
2018-08-11T00:59:50.447Z,13.01
2018-08-11T01:02:22.480Z,13.10
2018-08-11T01:04:54.490Z,13.17
2018-08-11T01:07:26.506Z,13.22
2018-08-11T01:09:58.563Z,13.30
2018-08-11T01:12:30.587Z,13.40
2018-08-11T01:15:02.815Z,13.43
2018-08-11T01:17:34.947Z,13.42
2018-08-11T01:20:09.493Z,13.46
2018-08-11T01:22:42.224Z,13.47
2018-08-11T01:25:14.658Z,13.52
2018-08-11T01:27:46.666Z,13.51
2018-08-11T01:30:20.697Z,13.52
2018-08-11T01:32:52.702Z,13.54
2018-08-11T01:35:24.707Z,13.55
2018-08-11T01:37:56.692Z,13.51
2018-08-11T01:40:29.226Z,13.53
2018-08-11T01:43:01.226Z,13.53
2018-08-11T01:45:33.243Z,13.51
2018-08-11T01:48:05.366Z,13.54
2018-08-11T01:50:37.363Z,13.57
2018-08-11T01:53:09.335Z,13.59
2018-08-11T01:55:41.314Z,13.64
2018-08-11T01:58:13.285Z,13.61
2018-08-11T02:00:45.247Z,13.59
2018-08-11T02:03:17.218Z,13.55
2018-08-11T02:05:49.178Z,13.53
2018-08-11T02:08:21.169Z,13.53
2018-08-11T02:10:54.223Z,13.48
2018-08-11T02:13:26.219Z,13.43
2018-08-11T02:15:58.228Z,13.31
2018-08-11T02:18:30.187Z,13.28
2018-08-11T02:21:02.183Z,13.19
2018-08-11T02:23:34.182Z,13.10
2018-08-11T02:26:06.199Z,13.05
2018-08-11T02:28:38.227Z,13.00
2018-08-11T02:31:10.282Z,12.99
2018-08-11T02:33:42.319Z,12.99
2018-08-11T02:36:14.363Z,12.94
2018-08-11T02:38:46.370Z,12.91
2018-08-11T02:41:18.392Z,12.85
2018-08-11T02:43:54.390Z,12.83
2018-08-11T02:46:26.435Z,12.82
2018-08-11T02:48:58.476Z,12.76
2018-08-11T02:51:30.456Z,12.79
2018-08-11T02:54:02.965Z,12.79
2018-08-11T02:56:34.945Z,12.84
2018-08-11T02:59:06.938Z,12.82
2018-08-11T03:01:38.958Z,12.86
2018-08-11T03:04:10.974Z,12.95
2018-08-11T03:06:42.986Z,12.97
2018-08-11T03:09:14.956Z,12.94
2018-08-11T03:11:46.960Z,12.87
2018-08-11T03:14:18.961Z,12.77
2018-08-11T03:16:50.983Z,12.75
2018-08-11T03:19:22.988Z,12.78
2018-08-11T03:21:54.966Z,12.79
2018-08-11T03:24:26.975Z,12.81
2018-08-11T03:26:58.962Z,12.83
2018-08-11T03:29:30.962Z,12.82
2018-08-11T03:32:03.015Z,12.86
2018-08-11T03:34:34.980Z,12.87
2018-08-11T03:37:06.935Z,12.81
2018-08-11T03:39:38.919Z,12.85
2018-08-11T03:42:10.903Z,12.85
2018-08-11T03:44:42.883Z,12.87
2018-08-11T03:47:14.887Z,12.86
2018-08-11T03:49:46.858Z,12.91
2018-08-11T03:52:18.905Z,12.94
2018-08-11T03:54:50.886Z,12.97
2018-08-11T03:57:22.862Z,12.93
2018-08-11T03:59:54.847Z,13.06
2018-08-11T04:02:26.832Z,13.13
2018-08-11T04:04:58.790Z,13.19
2018-08-11T04:07:30.782Z,13.16
2018-08-11T04:10:02.946Z,13.20
2018-08-11T04:12:34.945Z,13.19
2018-08-11T04:15:06.948Z,13.23
2018-08-11T04:17:40.628Z,13.29
2018-08-11T04:20:13.178Z,13.21
2018-08-11T04:22:45.161Z,13.31
2018-08-11T04:25:17.127Z,13.35
2018-08-11T04:27:49.139Z,13.50
2018-08-11T04:30:21.230Z,13.64
2018-08-11T04:32:53.235Z,13.46
2018-08-11T04:35:25.229Z,13.31
2018-08-11T04:37:57.226Z,13.28
2018-08-11T04:40:29.228Z,13.24
2018-08-11T04:43:01.191Z,13.30
2018-08-11T04:45:33.172Z,13.29
2018-08-11T04:48:05.190Z,13.40
2018-08-11T04:50:37.218Z,13.43
2018-08-11T04:53:09.207Z,13.39
2018-08-11T04:55:41.183Z,13.34
2018-08-11T04:58:13.186Z,13.47
2018-08-11T05:00:45.241Z,13.46
2018-08-11T05:03:17.143Z,13.54
2018-08-11T05:05:49.138Z,13.65
2018-08-11T05:08:21.160Z,13.75
2018-08-11T05:10:53.125Z,13.84
2018-08-11T05:13:25.088Z,13.98
2018-08-11T05:15:57.212Z,14.07
2018-08-11T05:18:29.166Z,14.11
2018-08-11T05:21:01.243Z,14.06
2018-08-11T05:23:33.335Z,14.18
2018-08-11T05:26:05.377Z,14.05
2018-08-11T05:28:37.479Z,13.95
2018-08-11T05:31:09.534Z,13.91
2018-08-11T05:33:41.638Z,13.98
2018-08-11T05:36:13.750Z,14.29
2018-08-11T05:38:45.807Z,14.31
2018-08-11T05:41:17.835Z,14.51
2018-08-11T05:43:49.863Z,14.62
2018-08-11T05:46:21.923Z,14.55
2018-08-11T05:48:53.951Z,14.37
2018-08-11T05:51:26.168Z,14.51
2018-08-11T05:53:58.282Z,14.79
2018-08-11T05:56:30.314Z,15.13
2018-08-11T05:59:02.372Z,15.16
2018-08-11T06:01:34.450Z,15.14
2018-08-11T06:04:06.547Z,15.32
2018-08-11T06:06:38.557Z,15.28
2018-08-11T06:09:10.744Z,15.53
2018-08-11T06:11:42.918Z,15.30
2018-08-11T06:14:14.953Z,15.22
2018-08-11T06:16:47.141Z,15.49
2018-08-11T06:19:19.294Z,15.72
2018-08-11T06:21:51.380Z,15.83
2018-08-11T06:24:23.373Z,15.90
2018-08-11T06:26:55.380Z,15.77
2018-08-11T06:29:27.395Z,15.62
2018-08-11T06:31:59.461Z,15.75
2018-08-11T06:34:32.132Z,15.77
2018-08-11T06:37:04.459Z,15.41
2018-08-11T06:39:37.150Z,15.62
2018-08-11T06:42:09.320Z,15.54
2018-08-11T06:44:41.331Z,15.55
2018-08-11T06:47:13.367Z,15.87
2018-08-11T06:49:46.273Z,16.36
2018-08-11T06:52:18.528Z,16.53
2018-08-11T06:54:50.576Z,16.88
2018-08-11T06:57:22.644Z,17.06
2018-08-11T06:59:54.818Z,17.17
2018-08-11T07:02:26.780Z,17.39
2018-08-11T07:04:58.759Z,17.55
2018-08-11T07:07:30.755Z,17.89
2018-08-11T07:10:02.758Z,17.40
2018-08-11T07:12:34.767Z,17.55
2018-08-11T07:15:06.876Z,17.68
2018-08-11T07:17:38.858Z,18.22
2018-08-11T07:20:10.995Z,17.99
2018-08-11T07:22:46.143Z,17.92
2018-08-11T07:25:18.207Z,17.75
2018-08-11T07:27:50.303Z,18.23
2018-08-11T07:30:22.425Z,18.85
2018-08-11T07:32:54.378Z,19.09
2018-08-11T07:35:26.371Z,19.17
2018-08-11T07:37:58.386Z,18.98
2018-08-11T07:40:30.335Z,18.58
2018-08-11T07:43:02.424Z,18.94
2018-08-11T07:45:34.422Z,19.07
2018-08-11T07:48:06.420Z,19.46
2018-08-11T07:50:38.443Z,19.49
2018-08-11T07:53:10.447Z,21.12
2018-08-11T07:55:42.435Z,23.21
2018-08-11T07:58:14.470Z,23.86
2018-08-11T08:00:46.441Z,24.04
2018-08-11T08:03:18.447Z,25.15
2018-08-11T08:05:50.451Z,25.68
2018-08-11T08:08:22.450Z,24.94
2018-08-11T08:10:54.407Z,25.20
2018-08-11T08:13:26.375Z,26.01
2018-08-11T08:15:58.340Z,26.24
2018-08-11T08:18:30.359Z,27.40
2018-08-11T08:21:02.395Z,25.96
2018-08-11T08:23:34.415Z,25.58
2018-08-11T08:26:06.492Z,26.52
2018-08-11T08:28:38.498Z,27.37
2018-08-11T08:31:10.507Z,27.47
2018-08-11T08:33:42.519Z,28.18
2018-08-11T08:36:14.506Z,27.55
2018-08-11T08:38:46.549Z,27.55
2018-08-11T08:41:18.585Z,26.80
2018-08-11T08:43:50.592Z,27.61
2018-08-11T08:46:22.594Z,27.93
2018-08-11T08:48:54.631Z,27.05
2018-08-11T08:51:26.777Z,25.71
2018-08-11T08:53:58.782Z,26.32
2018-08-11T08:56:30.763Z,26.75
2018-08-11T08:59:02.856Z,27.38
2018-08-11T09:01:34.870Z,28.70
2018-08-11T09:04:06.866Z,28.45
2018-08-11T09:06:38.848Z,28.68
2018-08-11T09:09:11.587Z,28.63
2018-08-11T09:11:43.606Z,28.86
2018-08-11T09:14:15.666Z,29.24
2018-08-11T09:16:47.766Z,28.29
2018-08-11T09:19:19.844Z,27.93
2018-08-11T09:21:51.902Z,27.46
2018-08-11T09:24:23.906Z,26.67
2018-08-11T09:26:55.967Z,26.83
2018-08-11T09:29:28.169Z,28.75
2018-08-11T09:32:00.195Z,29.04
2018-08-11T09:34:32.207Z,29.67
2018-08-11T09:37:04.234Z,30.51
2018-08-11T09:39:36.237Z,29.74
2018-08-11T09:42:08.264Z,29.59
2018-08-11T09:44:40.235Z,27.94
2018-08-11T09:47:12.229Z,29.26
2018-08-11T09:49:44.269Z,30.80
2018-08-11T09:52:16.364Z,30.79
2018-08-11T09:54:48.323Z,29.36
2018-08-11T09:57:20.352Z,29.77
2018-08-11T09:59:52.371Z,30.32
2018-08-11T10:02:24.378Z,29.00
2018-08-11T10:04:56.418Z,29.65
2018-08-11T10:07:28.409Z,29.95
2018-08-11T10:10:00.471Z,29.07
2018-08-11T10:12:32.476Z,27.78
2018-08-11T10:15:04.547Z,26.08
2018-08-11T10:17:36.556Z,26.33
2018-08-11T10:20:08.742Z,26.65
2018-08-11T10:22:40.848Z,27.15
2018-08-11T10:25:12.850Z,26.90
2018-08-11T10:27:44.849Z,27.20
2018-08-11T10:30:16.831Z,28.64
2018-08-11T10:32:48.824Z,29.24
2018-08-11T10:35:20.828Z,27.46
2018-08-11T10:37:52.847Z,27.62
2018-08-11T10:40:24.825Z,27.61
2018-08-11T10:42:56.811Z,27.94
2018-08-11T10:45:28.823Z,28.39
2018-08-11T10:48:00.846Z,28.75
2018-08-11T10:50:32.843Z,28.35
2018-08-11T10:53:04.854Z,28.73
2018-08-11T10:55:36.854Z,29.09
2018-08-11T10:58:08.872Z,28.56
2018-08-11T11:00:40.878Z,27.69
2018-08-11T11:03:12.845Z,26.98
2018-08-11T11:05:44.854Z,26.08
2018-08-11T11:08:16.857Z,26.43
2018-08-11T11:10:48.855Z,26.19
2018-08-11T11:13:20.855Z,26.14
2018-08-11T11:15:52.851Z,26.41
2018-08-11T11:18:24.942Z,27.55
2018-08-11T11:20:57.070Z,28.22
2018-08-11T11:23:28.974Z,28.65
2018-08-11T11:26:00.994Z,28.17
2018-08-11T11:28:33.011Z,27.92
2018-08-11T11:31:05.075Z,28.45
2018-08-11T11:33:37.118Z,28.09
2018-08-11T11:36:09.153Z,27.32
2018-08-11T11:38:41.151Z,26.98
2018-08-11T11:41:13.231Z,27.11
2018-08-11T11:43:45.255Z,26.95
2018-08-11T11:46:17.280Z,26.89
2018-08-11T11:48:49.284Z,26.91
2018-08-11T11:51:22.077Z,26.86
2018-08-11T11:53:54.124Z,27.04
2018-08-11T11:56:26.123Z,27.19
2018-08-11T11:58:58.144Z,26.90
2018-08-11T12:01:30.135Z,27.74
2018-08-11T12:04:02.343Z,27.18
2018-08-11T12:06:34.299Z,27.01
2018-08-11T12:09:07.599Z,27.11
2018-08-11T12:11:39.771Z,28.09
2018-08-11T12:14:11.750Z,28.50
2018-08-11T12:16:43.779Z,28.02
2018-08-11T12:19:15.804Z,28.37
2018-08-11T12:21:47.812Z,28.25
2018-08-11T12:24:19.836Z,27.82
2018-08-11T12:26:51.864Z,27.69
2018-08-11T12:29:23.856Z,28.22
2018-08-11T12:31:55.931Z,29.05
2018-08-11T12:34:27.953Z,29.41
2018-08-11T12:36:59.966Z,29.18
2018-08-11T12:39:32.006Z,29.39
2018-08-11T12:42:04.083Z,30.37
2018-08-11T12:44:36.071Z,28.60
2018-08-11T12:47:08.389Z,29.03
2018-08-11T12:49:40.421Z,30.68
2018-08-11T12:52:12.435Z,29.92
2018-08-11T12:54:44.463Z,29.43
2018-08-11T12:57:16.482Z,31.35
2018-08-11T12:59:48.493Z,32.01
2018-08-11T13:02:20.516Z,33.73
2018-08-11T13:04:52.533Z,34.42
2018-08-11T13:07:24.701Z,31.12
2018-08-11T13:09:56.723Z,28.84
2018-08-11T13:12:29.243Z,28.42
2018-08-11T13:15:01.264Z,29.98
2018-08-11T13:17:33.278Z,31.34
2018-08-11T13:20:06.135Z,29.44
2018-08-11T13:22:38.119Z,27.46
2018-08-11T13:25:10.129Z,26.26
2018-08-11T13:27:42.150Z,26.06
2018-08-11T13:30:14.131Z,26.40
2018-08-11T13:32:46.158Z,27.74
2018-08-11T13:35:18.167Z,31.23
2018-08-11T13:37:50.224Z,32.14
2018-08-11T13:40:22.239Z,32.52
2018-08-11T13:42:54.262Z,30.57
2018-08-11T13:45:26.278Z,31.64
2018-08-11T13:47:58.318Z,33.09
2018-08-11T13:50:30.342Z,32.91
2018-08-11T13:53:02.382Z,33.13
2018-08-11T13:55:34.418Z,32.25
2018-08-11T13:58:06.505Z,31.79
2018-08-11T14:00:38.501Z,32.29
2018-08-11T14:03:10.593Z,32.61
2018-08-11T14:05:42.586Z,31.40
2018-08-11T14:08:14.622Z,32.89
2018-08-11T14:10:46.650Z,34.68
2018-08-11T14:13:18.647Z,34.44
2018-08-11T14:15:50.640Z,34.35
2018-08-11T14:18:22.655Z,33.18
2018-08-11T14:20:54.635Z,32.62
2018-08-11T14:23:27.496Z,31.22
2018-08-11T14:25:59.477Z,30.33
2018-08-11T14:28:31.491Z,29.53
2018-08-11T14:31:03.500Z,27.50
2018-08-11T14:33:35.512Z,28.94
2018-08-11T14:36:07.528Z,29.87
2018-08-11T14:38:39.606Z,29.56
2018-08-11T14:41:11.574Z,30.42
2018-08-11T14:43:43.565Z,31.23
2018-08-11T14:46:15.547Z,31.18
2018-08-11T14:48:47.557Z,32.08
2018-08-11T14:51:19.548Z,33.02
2018-08-11T14:53:51.560Z,32.84
2018-08-11T14:56:23.628Z,31.03
2018-08-11T14:58:55.543Z,31.58
2018-08-11T15:01:27.593Z,32.26
2018-08-11T15:03:59.627Z,30.43
2018-08-11T15:06:31.643Z,30.63
2018-08-11T15:09:06.107Z,31.24
2018-08-11T15:11:38.286Z,31.70
2018-08-11T15:14:10.321Z,31.26
2018-08-11T15:16:42.312Z,31.06
2018-08-11T15:19:14.347Z,30.32
2018-08-11T15:21:46.419Z,31.42
2018-08-11T15:24:18.676Z,32.41
2018-08-11T15:26:50.698Z,30.60
2018-08-11T15:29:22.753Z,30.42
2018-08-11T15:31:54.790Z,30.28
2018-08-11T15:34:26.798Z,30.67
2018-08-11T15:36:58.799Z,31.44
2018-08-11T15:39:30.843Z,30.15
2018-08-11T15:42:02.918Z,30.92
2018-08-11T15:44:34.916Z,30.98
2018-08-11T15:47:10.095Z,30.27
2018-08-11T15:49:52.024Z,30.59
2018-08-11T15:52:24.080Z,31.80
2018-08-11T15:54:56.093Z,30.22
2018-08-11T15:57:28.124Z,29.74
2018-08-11T16:00:00.148Z,30.43
2018-08-11T16:02:32.142Z,30.82
2018-08-11T16:05:04.382Z,31.31
2018-08-11T16:07:36.465Z,29.93
2018-08-11T16:10:08.499Z,30.05
2018-08-11T16:12:40.526Z,30.76
2018-08-11T16:15:12.530Z,29.82
2018-08-11T16:17:44.548Z,29.71
2018-08-11T16:20:16.567Z,29.30
2018-08-11T16:22:48.675Z,28.98
2018-08-11T16:25:20.668Z,28.41
2018-08-11T16:27:52.684Z,28.02
2018-08-11T16:30:24.687Z,27.62
2018-08-11T16:32:56.688Z,27.46
2018-08-11T16:35:28.691Z,27.23
2018-08-11T16:38:00.659Z,27.10
2018-08-11T16:40:32.655Z,27.08
2018-08-11T16:43:04.691Z,26.53
2018-08-11T16:45:36.712Z,26.43
2018-08-11T16:48:08.719Z,26.57
2018-08-11T16:50:40.745Z,26.24
2018-08-11T16:53:12.754Z,25.87
2018-08-11T16:55:44.754Z,25.77
2018-08-11T16:58:16.739Z,25.39
2018-08-11T17:00:48.824Z,25.01
2018-08-11T17:03:20.867Z,24.53
2018-08-11T17:05:52.992Z,24.45
2018-08-11T17:08:24.932Z,24.28
2018-08-11T17:10:56.895Z,24.23
2018-08-11T17:13:28.868Z,24.13
2018-08-11T17:16:00.891Z,24.07
2018-08-11T17:18:32.967Z,24.01
2018-08-11T17:21:04.976Z,23.95
2018-08-11T17:23:37.435Z,23.86
2018-08-11T17:26:09.440Z,23.79
2018-08-11T17:28:41.447Z,23.59
2018-08-11T17:31:13.449Z,23.58
2018-08-11T17:33:45.454Z,23.52
2018-08-11T17:36:17.465Z,23.46
2018-08-11T17:38:49.521Z,23.31
2018-08-11T17:41:21.555Z,23.13
2018-08-11T17:43:53.546Z,23.09
2018-08-11T17:46:25.546Z,23.03
2018-08-11T17:48:57.600Z,22.92
2018-08-11T17:51:29.564Z,22.86
2018-08-11T17:54:01.558Z,22.76
2018-08-11T17:56:33.554Z,22.67
2018-08-11T17:59:05.575Z,22.44
2018-08-11T18:01:37.581Z,22.28
2018-08-11T18:04:09.600Z,22.02
2018-08-11T18:06:41.667Z,21.84
2018-08-11T18:09:13.666Z,21.60
2018-08-11T18:11:45.675Z,21.44
2018-08-11T18:14:17.662Z,21.25
2018-08-11T18:16:49.654Z,21.09
2018-08-11T18:19:21.713Z,20.88
2018-08-11T18:21:53.674Z,20.80
2018-08-11T18:24:25.656Z,20.80
2018-08-11T18:26:57.649Z,20.70
2018-08-11T18:29:29.666Z,20.72
2018-08-11T18:32:01.707Z,20.59
2018-08-11T18:34:33.895Z,20.60
2018-08-11T18:37:05.938Z,20.51
2018-08-11T18:39:37.906Z,20.39
2018-08-11T18:42:09.873Z,20.40
2018-08-11T18:44:41.911Z,20.28
2018-08-11T18:47:13.866Z,20.23
2018-08-11T18:49:45.826Z,20.01
2018-08-11T18:52:17.848Z,19.97
2018-08-11T18:54:50.019Z,19.69
2018-08-11T18:57:22.016Z,19.40
2018-08-11T18:59:54.078Z,19.09
2018-08-11T19:02:26.159Z,19.14
2018-08-11T19:04:58.311Z,18.92
2018-08-11T19:07:30.391Z,18.74
2018-08-11T19:10:02.678Z,18.52
2018-08-11T19:12:35.239Z,18.60
2018-08-11T19:15:10.240Z,18.65
2018-08-11T19:17:42.297Z,18.58
2018-08-11T19:20:14.462Z,18.42
2018-08-11T19:22:46.643Z,18.54
2018-08-11T19:25:18.715Z,18.57
2018-08-11T19:27:50.829Z,18.42
2018-08-11T19:30:22.830Z,18.21
2018-08-11T19:32:54.801Z,18.07
2018-08-11T19:35:26.959Z,18.23
2018-08-11T19:37:58.984Z,18.37
2018-08-11T19:40:31.014Z,18.52
2018-08-11T19:43:03.052Z,18.20
2018-08-11T19:45:35.108Z,17.92
2018-08-11T19:48:07.163Z,17.66
2018-08-11T19:50:39.194Z,17.49
2018-08-11T19:53:11.290Z,17.50
2018-08-11T19:55:43.333Z,17.49
2018-08-11T19:58:15.414Z,17.56
2018-08-11T20:00:47.427Z,17.40
2018-08-11T20:03:19.470Z,17.30
2018-08-11T20:05:51.634Z,17.20
2018-08-11T20:08:23.602Z,17.12
2018-08-11T20:10:55.578Z,17.01
2018-08-11T20:13:27.710Z,16.92
2018-08-11T20:15:59.806Z,16.86
2018-08-11T20:18:31.907Z,16.92
2018-08-11T20:21:03.990Z,17.18
2018-08-11T20:23:36.067Z,17.14
2018-08-11T20:26:08.114Z,17.11
2018-08-11T20:28:40.074Z,17.13
2018-08-11T20:31:14.196Z,16.97
2018-08-11T20:33:46.274Z,16.95
2018-08-11T20:36:18.498Z,16.87
2018-08-11T20:38:50.603Z,16.87
2018-08-11T20:41:22.875Z,16.88
2018-08-11T20:43:54.965Z,16.86
2018-08-11T20:46:27.009Z,16.85
2018-08-11T20:48:58.986Z,16.82
2018-08-11T20:51:31.074Z,16.69
2018-08-11T20:54:03.156Z,16.53
2018-08-11T20:56:35.164Z,16.52
2018-08-11T20:59:07.132Z,16.57
2018-08-11T21:01:39.318Z,16.60
2018-08-11T21:04:11.271Z,16.46
2018-08-11T21:06:43.290Z,16.41
2018-08-11T21:09:15.339Z,16.23
2018-08-11T21:11:47.370Z,16.15
2018-08-11T21:14:19.580Z,16.02
2018-08-11T21:16:51.727Z,15.93
2018-08-11T21:19:23.840Z,15.87
2018-08-11T21:21:55.905Z,15.92
2018-08-11T21:24:27.991Z,15.79
2018-08-11T21:26:59.999Z,15.63
2018-08-11T21:29:32.079Z,15.43
2018-08-11T21:32:04.177Z,15.42
2018-08-11T21:34:36.204Z,15.37
2018-08-11T21:37:08.271Z,15.39
2018-08-11T21:39:40.303Z,15.38
2018-08-11T21:42:12.431Z,15.26
2018-08-11T21:44:44.546Z,15.23
2018-08-11T21:47:16.567Z,15.18
2018-08-11T21:49:48.583Z,15.26
2018-08-11T21:52:27.417Z,15.19
2018-08-11T21:54:59.474Z,15.12
2018-08-11T21:57:31.490Z,15.05
2018-08-11T22:00:13.516Z,14.93
2018-08-11T22:02:45.817Z,14.86
2018-08-11T22:05:17.871Z,15.04
2018-08-11T22:07:50.007Z,15.01
2018-08-11T22:10:22.079Z,14.95
2018-08-11T22:12:54.159Z,15.04
2018-08-11T22:15:26.363Z,14.89
2018-08-11T22:17:58.469Z,14.79
2018-08-11T22:20:30.583Z,14.72
2018-08-11T22:23:02.694Z,14.76
2018-08-11T22:25:34.747Z,14.65
2018-08-11T22:28:06.756Z,14.59
2018-08-11T22:30:39.030Z,14.42
2018-08-11T22:33:11.017Z,14.50
2018-08-11T22:35:43.295Z,14.67
2018-08-11T22:38:15.238Z,14.71
2018-08-11T22:40:47.298Z,14.59
2018-08-11T22:43:19.395Z,14.35
2018-08-11T22:45:51.416Z,14.31
2018-08-11T22:48:23.563Z,14.29
2018-08-11T22:50:55.624Z,14.24
2018-08-11T22:53:27.720Z,14.31
2018-08-11T22:55:59.826Z,14.29
2018-08-11T22:58:32.044Z,14.18
2018-08-11T23:01:04.150Z,14.26
2018-08-11T23:03:36.212Z,14.17
2018-08-11T23:06:08.210Z,14.29
2018-08-11T23:08:40.219Z,14.20
2018-08-11T23:11:12.402Z,14.11
2018-08-11T23:13:44.547Z,14.12
2018-08-11T23:16:16.620Z,14.09
2018-08-11T23:18:48.674Z,13.98
2018-08-11T23:21:20.798Z,13.79
2018-08-11T23:23:52.863Z,13.76
2018-08-11T23:26:24.950Z,13.63
2018-08-11T23:28:57.006Z,13.62
2018-08-11T23:31:29.083Z,13.60
2018-08-11T23:34:01.138Z,13.54
2018-08-11T23:36:33.251Z,13.45
2018-08-11T23:39:06.920Z,13.59
2018-08-11T23:41:39.904Z,13.50
2018-08-11T23:44:11.972Z,13.56
2018-08-11T23:46:44.143Z,13.62
2018-08-11T23:49:16.370Z,13.54
2018-08-11T23:51:48.363Z,13.39
2018-08-11T23:54:20.382Z,13.31
2018-08-11T23:56:52.427Z,13.28
2018-08-11T23:59:24.583Z,13.35
